createdAt,value
2023-01-26T00:00:16.805Z,31.7
2023-01-26T00:05:16.852Z,31.6
2023-01-26T00:10:16.847Z,31.9
2023-01-26T00:15:16.807Z,31.8
2023-01-26T00:20:16.848Z,32.2
2023-01-26T00:25:16.944Z,32.6
2023-01-26T00:30:16.895Z,32.6
2023-01-26T00:35:16.924Z,32.6
2023-01-26T00:40:16.941Z,32.6
2023-01-26T00:45:16.963Z,32.7
2023-01-26T00:50:17.016Z,32.8
2023-01-26T00:55:17.027Z,32.8
2023-01-26T01:00:17.129Z,32.9
2023-01-26T01:05:16.942Z,33.0
2023-01-26T01:10:17.020Z,33.4
2023-01-26T01:15:17.009Z,33.6
2023-01-26T01:20:17.022Z,33.7
2023-01-26T01:25:17.096Z,33.9
2023-01-26T01:30:17.103Z,34.0
2023-01-26T01:35:17.056Z,34.1
2023-01-26T01:40:17.266Z,34.3
2023-01-26T01:45:17.158Z,34.4
2023-01-26T01:50:17.039Z,34.5
2023-01-26T01:55:17.059Z,34.6
2023-01-26T02:00:17.087Z,35.0
2023-01-26T02:05:17.082Z,35.2
2023-01-26T02:10:17.206Z,35.4
2023-01-26T02:15:17.154Z,35.8
2023-01-26T02:20:17.160Z,36.1
2023-01-26T02:25:17.272Z,36.3
2023-01-26T02:30:17.147Z,36.5
2023-01-26T02:35:17.170Z,36.6
2023-01-26T02:40:17.202Z,37.1
2023-01-26T02:45:17.177Z,37.0
2023-01-26T02:50:17.178Z,37.0
2023-01-26T02:55:17.253Z,37.2
2023-01-26T03:00:17.167Z,37.6
2023-01-26T03:05:17.211Z,37.8
2023-01-26T03:10:17.461Z,38.1
2023-01-26T03:15:17.515Z,38.3
2023-01-26T03:20:17.341Z,38.4
2023-01-26T03:25:17.305Z,38.7
2023-01-26T03:30:17.383Z,38.8
2023-01-26T03:35:17.368Z,38.9
2023-01-26T03:40:17.334Z,39.0
2023-01-26T03:45:17.379Z,39.1
2023-01-26T03:50:17.381Z,39.3
2023-01-26T03:55:17.326Z,39.5
2023-01-26T04:00:17.328Z,39.8
2023-01-26T04:05:17.447Z,39.9
2023-01-26T04:10:17.470Z,40.2
2023-01-26T04:15:17.385Z,40.8
2023-01-26T04:20:17.583Z,40.7
2023-01-26T04:25:15.517Z,40.8
2023-01-26T04:30:15.473Z,40.9
2023-01-26T04:35:15.419Z,41.3
2023-01-26T04:40:15.479Z,41.5
2023-01-26T04:45:15.513Z,41.6
2023-01-26T04:50:15.455Z,41.7
2023-01-26T04:55:15.516Z,41.8
2023-01-26T05:00:16.484Z,42.0
2023-01-26T05:05:16.656Z,42.2
2023-01-26T05:10:16.919Z,42.6
2023-01-26T05:15:16.617Z,42.7
2023-01-26T05:20:16.519Z,42.9
2023-01-26T05:25:16.586Z,43.0
2023-01-26T05:30:17.023Z,43.1
2023-01-26T05:35:16.692Z,43.2
2023-01-26T05:40:16.546Z,43.7
2023-01-26T05:45:16.586Z,43.7
2023-01-26T05:50:16.601Z,43.8
2023-01-26T05:55:16.485Z,44.1
2023-01-26T06:00:16.657Z,44.3
2023-01-26T06:05:16.642Z,44.4
2023-01-26T06:10:16.595Z,44.5
2023-01-26T06:15:16.598Z,44.5
2023-01-26T06:20:16.632Z,44.7
2023-01-26T06:25:16.726Z,45.1
2023-01-26T06:30:16.956Z,45.4
2023-01-26T06:35:16.782Z,45.6
2023-01-26T06:40:16.862Z,45.6
2023-01-26T06:45:16.733Z,45.6
2023-01-26T06:50:16.685Z,45.8
2023-01-26T06:55:16.751Z,45.8
2023-01-26T07:00:16.734Z,45.9
2023-01-26T07:05:16.805Z,46.0
2023-01-26T07:10:16.886Z,46.1
2023-01-26T07:15:16.816Z,46.0
2023-01-26T07:20:16.785Z,46.1
2023-01-26T07:25:16.829Z,46.1
2023-01-26T07:30:16.836Z,46.2
2023-01-26T07:35:16.830Z,46.3
2023-01-26T07:40:17.132Z,46.2
2023-01-26T07:45:16.835Z,46.5
2023-01-26T07:50:16.825Z,46.6
2023-01-26T07:55:16.824Z,46.8
2023-01-26T08:00:16.883Z,46.7
2023-01-26T08:05:16.899Z,47.2
2023-01-26T08:10:16.886Z,48.0
2023-01-26T08:15:17.156Z,47.6
2023-01-26T08:20:16.989Z,47.6
2023-01-26T08:25:16.941Z,47.4
2023-01-26T08:30:17.048Z,47.5
2023-01-26T08:35:17.031Z,48.1
2023-01-26T08:40:17.046Z,48.0
2023-01-26T08:45:17.022Z,48.2
2023-01-26T08:50:17.127Z,48.5
2023-01-26T08:55:17.044Z,48.4
2023-01-26T09:00:17.065Z,48.8
2023-01-26T09:05:16.987Z,48.9
2023-01-26T09:10:17.188Z,48.8
2023-01-26T09:15:17.154Z,48.8
2023-01-26T09:20:17.040Z,48.8
2023-01-26T09:25:17.188Z,49.2
2023-01-26T09:30:17.506Z,49.0
2023-01-26T09:35:17.422Z,49.0
2023-01-26T09:40:17.139Z,49.3
2023-01-26T09:45:17.255Z,49.4
2023-01-26T09:50:17.105Z,49.0
2023-01-26T09:55:17.605Z,48.9
2023-01-26T10:00:17.155Z,48.5
2023-01-26T10:05:17.121Z,48.5
2023-01-26T10:10:17.203Z,48.3
2023-01-26T10:15:17.152Z,47.9
2023-01-26T10:20:17.234Z,47.6
2023-01-26T10:25:17.164Z,47.5
2023-01-26T10:30:17.226Z,47.5
2023-01-26T10:35:17.262Z,47.4
2023-01-26T10:40:17.289Z,47.2
2023-01-26T10:45:17.250Z,47.1
2023-01-26T10:50:17.259Z,47.1
2023-01-26T10:55:17.288Z,47.0
2023-01-26T11:00:17.267Z,47.4
2023-01-26T11:05:17.267Z,47.6
2023-01-26T11:10:17.360Z,47.6
2023-01-26T11:15:17.357Z,47.5
2023-01-26T11:20:17.475Z,47.6
2023-01-26T11:25:17.334Z,47.7
2023-01-26T11:30:17.345Z,47.9
2023-01-26T11:35:17.415Z,48.0
2023-01-26T11:40:17.343Z,48.2
2023-01-26T11:45:17.449Z,48.2
2023-01-26T11:50:17.493Z,48.3
2023-01-26T11:55:17.286Z,48.7
2023-01-26T12:00:29.007Z,48.6
2023-01-26T12:05:15.394Z,47.9
2023-01-26T12:10:15.441Z,46.6
2023-01-26T12:15:15.534Z,47.0
2023-01-26T12:20:15.589Z,47.2
2023-01-26T12:25:28.726Z,46.3
2023-01-26T12:30:16.011Z,45.8
2023-01-26T12:35:15.608Z,44.3
2023-01-26T12:40:15.610Z,42.6
2023-01-26T12:45:18.339Z,41.4
2023-01-26T12:50:15.997Z,41.0
2023-01-26T12:55:15.577Z,40.6
2023-01-26T13:00:15.710Z,40.4
2023-01-26T13:05:15.603Z,40.3
2023-01-26T13:10:16.211Z,40.3
2023-01-26T13:15:15.665Z,40.3
2023-01-26T13:20:15.603Z,40.4
2023-01-26T13:25:15.642Z,40.3
2023-01-26T13:30:15.597Z,40.1
2023-01-26T13:35:15.690Z,40.0
2023-01-26T13:40:15.630Z,40.0
2023-01-26T13:45:15.741Z,40.2
2023-01-26T13:50:15.658Z,40.3
2023-01-26T13:55:15.608Z,40.5
2023-01-26T14:00:15.831Z,41.3
2023-01-26T14:05:15.696Z,41.9
2023-01-26T14:10:15.658Z,42.6
2023-01-26T14:15:15.721Z,43.0
2023-01-26T14:20:15.782Z,43.3
2023-01-26T14:25:15.714Z,43.5
2023-01-26T14:30:15.723Z,43.7
2023-01-26T14:35:15.722Z,43.2
2023-01-26T14:40:15.957Z,43.4
2023-01-26T14:45:15.725Z,43.6
2023-01-26T14:50:15.817Z,42.9
2023-01-26T14:55:15.804Z,43.4
2023-01-26T15:00:15.794Z,43.6
2023-01-26T15:05:15.778Z,43.8
2023-01-26T15:10:15.967Z,43.9
2023-01-26T15:15:15.807Z,43.8
2023-01-26T15:20:15.918Z,43.5
2023-01-26T15:25:15.935Z,43.4
2023-01-26T15:30:15.955Z,43.8
2023-01-26T15:35:15.895Z,44.0
2023-01-26T15:40:15.859Z,44.0
2023-01-26T15:45:15.994Z,44.2
2023-01-26T15:50:27.461Z,44.1
2023-01-26T15:55:15.866Z,44.1
2023-01-26T16:00:15.916Z,44.2
2023-01-26T16:05:16.055Z,44.3
2023-01-26T16:10:15.931Z,43.9
2023-01-26T16:15:16.105Z,43.9
2023-01-26T16:20:16.190Z,43.6
2023-01-26T16:25:16.146Z,43.6
2023-01-26T16:30:15.963Z,43.3
2023-01-26T16:35:15.989Z,43.3
2023-01-26T16:40:16.063Z,43.3
2023-01-26T16:45:15.934Z,42.7
2023-01-26T16:50:15.978Z,42.7
2023-01-26T16:55:16.091Z,42.4
2023-01-26T17:00:16.089Z,42.2
2023-01-26T17:05:16.074Z,42.2
2023-01-26T17:10:16.144Z,42.0
2023-01-26T17:15:16.069Z,41.7
2023-01-26T17:20:19.564Z,41.4
2023-01-26T17:25:17.125Z,41.5
2023-01-26T17:30:16.137Z,41.1
2023-01-26T17:35:16.149Z,40.8
2023-01-26T17:40:16.080Z,40.5
2023-01-26T17:45:16.105Z,40.2
2023-01-26T17:50:16.123Z,39.9
2023-01-26T17:55:16.166Z,40.0
2023-01-26T18:00:16.224Z,39.6
2023-01-26T18:05:16.219Z,39.5
2023-01-26T18:10:16.143Z,39.5
2023-01-26T18:15:16.280Z,39.8
2023-01-26T18:20:16.210Z,39.4
2023-01-26T18:25:16.296Z,39.0
2023-01-26T18:30:16.187Z,38.9
2023-01-26T18:35:16.281Z,38.6
2023-01-26T18:40:16.404Z,38.6
2023-01-26T18:45:16.277Z,38.7
2023-01-26T18:50:16.276Z,37.8
2023-01-26T18:55:16.378Z,37.1
2023-01-26T19:00:16.296Z,36.7
2023-01-26T19:05:16.280Z,36.3
2023-01-26T19:10:16.386Z,36.0
2023-01-26T19:15:16.321Z,36.2
2023-01-26T19:20:16.313Z,36.3
2023-01-26T19:25:16.410Z,36.4
2023-01-26T19:30:16.444Z,36.4
2023-01-26T19:35:16.671Z,36.5
2023-01-26T19:40:16.557Z,36.4
2023-01-26T19:45:16.426Z,36.4
2023-01-26T19:50:16.544Z,36.4
2023-01-26T19:55:16.343Z,36.1
2023-01-26T20:00:16.443Z,36.1
2023-01-26T20:05:16.422Z,36.1
2023-01-26T20:10:16.599Z,36.6
2023-01-26T20:15:16.467Z,35.8
2023-01-26T20:20:16.427Z,35.2
2023-01-26T20:25:16.513Z,35.3
2023-01-26T20:30:16.569Z,35.3
2023-01-26T20:35:16.494Z,34.5
2023-01-26T20:40:16.508Z,34.4
2023-01-26T20:45:16.516Z,34.7
2023-01-26T20:50:16.720Z,34.1
2023-01-26T20:55:16.857Z,34.0
2023-01-26T21:00:16.939Z,33.9
2023-01-26T21:05:16.598Z,33.8
2023-01-26T21:10:16.703Z,33.6
2023-01-26T21:15:16.557Z,33.5
2023-01-26T21:20:16.677Z,33.8
2023-01-26T21:25:16.579Z,33.7
2023-01-26T21:30:16.807Z,33.2
2023-01-26T21:35:16.612Z,33.5
2023-01-26T21:40:16.626Z,33.4
2023-01-26T21:45:16.802Z,33.7
2023-01-26T21:50:16.726Z,33.2
2023-01-26T21:55:16.685Z,33.2
2023-01-26T22:00:16.729Z,33.4
2023-01-26T22:05:16.877Z,33.4
2023-01-26T22:10:16.741Z,33.2
2023-01-26T22:15:16.801Z,33.0
2023-01-26T22:20:16.714Z,32.5
2023-01-26T22:25:16.724Z,32.0
2023-01-26T22:30:16.827Z,32.3
2023-01-26T22:35:16.721Z,32.6
2023-01-26T22:40:16.935Z,32.8
2023-01-26T22:45:16.834Z,32.7
2023-01-26T22:50:16.795Z,31.5
2023-01-26T22:55:16.872Z,31.8
2023-01-26T23:00:16.799Z,31.7
2023-01-26T23:05:16.909Z,31.2
2023-01-26T23:10:16.972Z,31.2
2023-01-26T23:15:16.988Z,31.4
2023-01-26T23:20:16.895Z,31.3
2023-01-26T23:25:16.850Z,31.1
2023-01-26T23:30:16.924Z,30.3
2023-01-26T23:35:16.926Z,30.6
2023-01-26T23:40:17.062Z,30.5
2023-01-26T23:45:16.987Z,30.7
2023-01-26T23:50:16.897Z,30.5
2023-01-26T23:55:16.889Z,29.7
